Latest Coastal Weather Observations for Shark Bay Airport

IDW60701

Issued at 6:32 am WST Monday 3 August 2015 (issued every 10 minutes, with the page automatically refreshed every 10 minutes)

About coastal observations | Map of coastal stations | Coastal observations for WA | Marine services | Other Formats
Station Details ID: 006105 Name: SHARK BAY AIRPORT Lat: -25.89 Lon: 113.58 Height: 33.8 m
Data from the previous 72 hours. | See also: Recent months at Shark Bay Airport
Date/Time
WST
Temp

°C
Wind Pressure Rain
since 9am
mm
Weather Cloud Vis
km
Sea
Height
m
Swell
Dir
 
Speed
knots
Gust
knots
hPa Trend Height
m
Period
s
Dir
03/06:30am 13.9 ESE 13 18 1024.7 - 0.0 - - - - - - -
03/06:00am 13.9 ESE 12 16 1024.6 - 0.0 - - - - - - -
03/05:30am 14.1 ESE 13 18 1024.1 - 0.0 - - - - - - -
03/05:00am 14.4 ESE 14 20 1023.9 - 0.0 - - - - - - -
03/04:30am 14.5 ESE 13 18 1024.2 - 0.0 - - - - - - -
03/04:00am 14.8 ESE 13 18 1024.4 - 0.0 - - - - - - -
03/03:30am 15.0 ESE 13 17 1024.7 - 0.0 - - - - - - -
03/03:00am 15.2 ESE 13 17 1024.7 - 0.0 - - - - - - -
03/02:30am 15.3 ESE 13 18 1024.8 - 0.0 - - - - - - -
03/02:00am 15.4 ESE 13 18 1024.8 - 0.0 - - - - - - -
03/01:30am 15.7 ESE 13 19 1024.8 - 0.0 - - - - - - -
03/01:00am 15.7 SE 12 16 1024.8 - 0.0 - - - - - - -
03/12:30am 16.1 SE 13 18 1024.7 - 0.0 - - - - - - -
03/12:00am 16.4 ESE 15 19 1024.6 - 0.0 - - - - - - -
 
Date/Time
WST
Temp

°C
Wind Pressure Rain
since 9am
mm
Weather Cloud Vis
km
Sea
Height
m
Swell
Dir
 
Speed
knots
Gust
knots
hPa Trend Height
m
Period
s
Dir
02/11:30pm 16.5 ESE 13 17 1024.6 - 0.0 - - - - - - -
02/11:00pm 16.8 ESE 14 19 1024.8 - 0.0 - - - - - - -
02/10:30pm 16.7 SE 13 17 1024.6 - 0.0 - - - - - - -
02/10:00pm 17.0 SE 13 20 1024.7 - 0.0 - - - - - - -
02/09:30pm 16.9 SE 12 17 1024.9 - 0.0 - - - - - - -
02/09:00pm 17.1 SE 12 16 1024.7 - 0.0 - - - - - - -
02/08:30pm 16.4 SE 9 12 1024.5 - 0.0 - - - - - - -
02/08:00pm 16.5 SSE 9 12 1024.4 - 0.0 - - - - - - -
02/07:30pm 16.6 SSE 8 10 1024.4 - 0.0 - - - - - - -
02/07:00pm 17.2 SSE 8 11 1024.3 - 0.0 - - - - - - -
02/06:30pm 17.7 SSE 9 11 1023.8 - 0.0 - - - - - - -
02/06:00pm 18.5 SSE 9 13 1023.7 - 0.0 - - - - - - -
02/05:30pm 19.5 SSE 11 15 1023.5 - 0.0 - - - - - - -
02/05:00pm 20.1 SE 13 19 1023.4 - 0.0 - - - - - - -
02/04:30pm 20.5 SE 13 19 1023.3 - 0.0 - - - - - - -
02/04:00pm 20.8 SE 12 16 1023.3 - 0.0 - - - - - - -
02/03:30pm 20.9 SE 13 18 1023.3 - 0.0 - - - - - - -
02/03:00pm 21.3 SE 12 18 1023.4 - 0.0 - - - - - - -
02/02:30pm 20.3 SE 12 17 1023.6 - 0.0 - - - - - - -
02/02:00pm 20.9 SE 12 17 1023.8 - 0.0 - - - - - - -
02/01:30pm 20.4 SE 13 18 1024.1 - 0.0 - - - - - - -
02/01:00pm 20.1 SE 13 21 1024.5 - 0.0 - - - - - - -
02/12:30pm 19.6 SE 14 19 1025.1 - 0.0 - - - - - - -
02/12:00pm 18.9 SE 13 17 1025.5 - 0.0 - - - - - - -
02/11:30am 18.6 ESE 14 19 1025.8 - 0.0 - - - - - - -
02/11:00am 17.7 ESE 14 20 1025.9 - 0.0 - - - - - - -
02/10:30am 17.0 SE 14 19 1026.0 - 0.0 - - - - - - -
02/10:00am 16.8 SE 15 21 1026.0 - 0.0 - - - - - - -
02/09:30am 16.3 SE 15 20 1025.9 - 0.0 - - - - - - -
02/09:00am 15.9 SE 14 21 1025.6 - 0.2 - - - - - - -
02/08:30am 14.8 SE 10 14 1025.3 - 0.2 - - - - - - -
02/08:00am 13.3 SE 9 12 1024.9 - 0.2 - - - - - - -
02/07:30am 12.1 SE 8 11 1024.5 - 0.2 - - - - - - -
02/07:00am 11.5 SE 8 11 1024.2 - 0.2 - - - - - - -
02/06:30am 11.5 SE 8 10 1023.8 - 0.2 - - - - - - -
02/06:00am 11.1 SE 7 8 1023.4 - 0.2 - - - - - - -
02/05:30am 11.1 SSE 8 11 1023.2 - 0.2 - - - - - - -
02/05:00am 11.5 SSE 9 12 1023.0 - 0.2 - - - - - - -
02/04:30am 11.6 SSE 10 13 1023.0 - 0.2 - - - - - - -
02/04:00am 12.0 SSE 10 13 1023.1 - 0.2 - - - - - - -
02/03:30am 12.3 SSE 9 12 1023.2 - 0.2 - - - - - - -
02/03:00am 12.4 SSE 8 11 1023.1 - 0.2 - - - - - - -
02/02:30am 12.7 SSE 8 11 1023.2 - 0.2 - - - - - - -
02/02:00am 12.8 SSE 9 12 1023.2 - 0.2 - - - - - - -
02/01:30am 13.0 SE 7 9 1023.4 - 0.2 - - - - - - -
02/01:00am 13.5 SE 9 12 1023.2 - 0.2 - - - - - - -
02/12:30am 14.0 SSE 9 12 1023.1 - 0.2 - - - - - - -
02/12:00am 14.5 SSE 11 17 1023.0 - 0.2 - - - - - - -
 
Date/Time
WST
Temp

°C
Wind Pressure Rain
since 9am
mm
Weather Cloud Vis
km
Sea
Height
m
Swell
Dir
 
Speed
knots
Gust
knots
hPa Trend Height
m
Period
s
Dir
01/11:30pm 14.8 SSE 10 14 1023.1 - 0.2 - - - - - - -
01/11:00pm 15.4 SSE 13 17 1023.0 - 0.2 - - - - - - -
01/10:30pm 15.9 SSE 12 17 1022.7 - 0.2 - - - - - - -
01/10:00pm 16.2 SSE 11 16 1022.5 - 0.2 - - - - - - -
01/09:30pm 16.5 SSE 11 14 1022.2 - 0.2 - - - - - - -
01/09:00pm 16.7 S 12 15 1021.7 - 0.2 - - - - - - -
01/08:30pm 17.0 S 12 18 1021.6 - 0.2 - - - - - - -
01/08:00pm 17.3 S 11 18 1021.3 - 0.2 - - - - - - -
01/07:30pm 17.5 S 11 16 1020.8 - 0.2 - - - - - - -
01/07:00pm 17.7 S 9 13 1020.6 - 0.2 - - - - - - -
01/06:30pm 18.0 S 10 14 1020.2 - 0.2 - - - - - - -
01/06:00pm 18.7 S 10 14 1020.0 - 0.2 - - - - - - -
01/05:30pm 20.1 S 9 14 1019.6 - 0.2 - - - - - - -
01/05:00pm 21.0 SSW 10 14 1019.3 - 0.2 - - - - - - -
01/04:30pm 21.4 SSW 10 14 1019.0 - 0.2 - - - - - - -
01/04:00pm 21.8 SSE 7 10 1018.8 - 0.2 - - - - - - -
01/03:30pm 22.2 SSE 9 12 1018.6 - 0.2 - - - - - - -
01/03:00pm 22.3 S 8 11 1018.6 - 0.2 - - - - - - -
01/02:30pm 22.7 SSE 6 11 1018.7 - 0.2 - - - - - - -
01/02:00pm 21.2 S 9 14 1018.7 - 0.2 - - - - - - -
01/01:30pm 21.5 S 8 17 1018.7 - 0.2 - - - - - - -
01/01:00pm 22.0 S 8 11 1019.0 - 0.2 - - - - - - -
01/12:30pm 22.5 SSE 10 16 1019.2 - 0.2 - - - - - - -
01/12:00pm 22.1 SSE 9 13 1019.2 - 0.2 - - - - - - -
01/11:30am 21.1 SSE 10 14 1019.4 - 0.2 - - - - - - -
01/11:00am 21.1 S 9 14 1019.5 - 0.2 - - - - - - -
01/10:30am 21.0 S 9 13 1019.6 - 0.0 - - - - - - -
01/10:00am 20.7 S 8 13 1019.5 - 0.0 - - - - - - -
01/09:30am 19.7 S 7 11 1019.1 - 0.0 - - - - - - -
01/09:00am 19.0 SW 6 8 1018.8 - 1.8 - - - - - - -
01/08:30am 18.0 CALM 0 0 1018.2 - 1.8 - - - - - - -
01/08:00am 16.6 WNW 4 5 1017.7 - 1.8 - - - - - - -
01/07:30am 13.4 NNW 1 4 1017.4 - 1.8 - - - - - - -
01/07:00am 13.4 NNW 3 5 1016.9 - 1.8 - - - - - - -
01/06:30am 13.9 N 6 7 1016.6 - 1.8 - - - - - - -
01/06:00am 14.2 SW 5 5 1016.4 - 1.8 - - - - - - -
01/05:30am 12.9 NW 5 6 1016.1 - 1.8 - - - - - - -
01/05:00am 14.2 WNW 6 6 1016.0 - 1.8 - - - - - - -
01/04:30am 13.5 N 4 5 1016.0 - 1.8 - - - - - - -
01/04:00am 12.7 CALM 0 0 1016.0 - 1.8 - - - - - - -
01/03:30am 13.0 NNW 3 5 1016.1 - 1.8 - - - - - - -
01/03:00am 12.7 NNW 4 5 1016.0 - 1.8 - - - - - - -
01/02:30am 13.8 NW 5 5 1015.9 - 1.8 - - - - - - -
01/02:00am 14.6 WSW 4 5 1016.3 - 1.8 - - - - - - -
01/01:30am 14.3 WSW 3 5 1016.4 - 1.8 - - - - - - -
01/01:00am 14.4 WSW 1 3 1016.5 - 1.8 - - - - - - -
01/12:30am 15.4 W 4 5 1016.6 - 1.8 - - - - - - -
01/12:00am 16.0 WSW 5 8 1016.6 - 1.8 - - - - - - -
 
Date/Time
WST
Temp

°C
Wind Pressure Rain
since 9am
mm
Weather Cloud Vis
km
Sea
Height
m
Swell
Dir
 
Speed
knots
Gust
knots
hPa Trend Height
m
Period
s
Dir
31/11:30pm 16.6 W 7 8 1016.6 - 1.8 - - - - - - -
31/11:00pm 16.2 WNW 7 7 1016.6 - 1.8 - - - - - - -
31/10:30pm 16.8 WNW 7 9 1016.6 - 1.8 - - - - - - -
31/10:00pm 16.8 WNW 8 9 1016.4 - 1.8 - - - - - - -
31/09:30pm 16.9 W 7 8 1016.4 - 1.8 - - - - - - -
31/09:00pm 17.3 W 8 10 1016.2 - 1.8 - - - - - - -
31/08:30pm 17.4 W 8 9 1016.1 - 1.8 - - - - - - -
31/08:00pm 17.5 W 9 11 1015.8 - 1.8 - - - - - - -
31/07:30pm 17.4 W 9 11 1015.4 - 1.8 - - - - - - -
31/07:00pm 18.0 W 10 12 1015.3 - 1.8 - - - - - - -
31/06:30pm 18.2 W 10 13 1014.9 - 1.8 - - - - - - -
31/06:00pm 18.6 W 10 13 1014.6 - 1.8 - - - - - - -
31/05:30pm 19.5 W 11 15 1014.6 - 1.8 - - - - - - -
31/05:00pm 19.9 W 11 14 1014.5 - 1.8 - - - - - - -
31/04:30pm 19.2 W 9 12 1014.6 - 1.8 - - - - - - -
31/04:00pm 18.9 W 12 16 1014.6 - 1.8 - - - - - - -
31/03:30pm 19.3 W 15 21 1014.8 - 1.8 - - - - - - -
31/03:00pm 20.0 W 15 22 1014.5 - 1.8 - - - - - - -
31/02:30pm 20.2 W 14 19 1014.5 - 1.8 - - - - - - -
31/02:00pm 20.8 W 14 18 1014.6 - 1.8 - - - - - - -
31/01:30pm 21.9 W 13 19 1014.6 - 1.8 - - - - - - -
31/01:00pm 20.8 W 13 17 1015.0 - 1.8 - - - - - - -
31/12:30pm 20.7 W 12 16 1015.5 - 1.8 - - - - - - -
31/12:00pm 20.6 W 11 16 1015.7 - 1.8 Recent precip. - - - - - -
31/11:30am 21.3 NW 10 14 1015.7 - 1.6 - - - - - - -
31/11:00am 21.1 NW 12 17 1016.0 - 1.6 - - - - - - -
31/10:30am 22.0 NW 11 16 1016.2 - 0.0 - - - - - - -
31/10:00am 22.4 NW 12 16 1016.4 - 0.0 - - - - - - -
31/09:30am 22.0 N 8 12 1016.0 - 0.0 - - - - - - -
31/09:00am 20.3 N 6 8 1015.9 - 0.2 - - - - - - -
31/08:30am 19.7 N 5 6 1015.9 - 0.2 - - - - - - -
31/08:00am 19.0 N 5 6 1015.6 - 0.2 - - - - - - -
31/07:30am 16.6 NNE 5 5 1015.3 - 0.2 - - - - - - -
31/07:00am 16.2 NNE 4 5 1015.3 - 0.2 - - - - - - -

Other Formats:

Comma delimited format used in spreadsheet applications
http://www.bom.gov.au/fwo/IDW60701/IDW60701.95402.axf

JavaScript Object Notation format (JSON) in row-major order
http://www.bom.gov.au/fwo/IDW60701/IDW60701.95402.json